Time;durP1;ratioP1;P1;durP2;ratioP2;P2;SDS_P1;SDS_P2;PMS_P1;PMS_P2;Temp;Humidity;BMP_temperature;BMP_pressure;BME280_temperature;BME280_humidity;BME280_pressure;Samples;Min_cycle;Max_cycle;Signal;HPM_P1;HPM_P2
2022/05/04 00:00:00;;;;;;;6.9;5.0;;;;;;;11.0;100.0;101690;;;;
2022/05/04 00:01:00;;;;;;;6.9;5.0;;;;;;;11.0;100.0;101690;;;;
2022/05/04 00:02:00;;;;;;;6.9;5.0;;;;;;;11.1;100.0;101690;;;;
2022/05/04 00:03:00;;;;;;;8.3;5.6;;;;;;;11.1;100.0;101690;;;;
2022/05/04 00:04:00;;;;;;;8.3;5.6;;;;;;;11.2;100.0;101690;;;;
2022/05/04 00:05:00;;;;;;;8.3;5.6;;;;;;;11.2;100.0;101690;;;;
2022/05/04 00:06:00;;;;;;;8.3;5.6;;;;;;;11.1;100.0;101690;;;;
2022/05/04 00:07:00;;;;;;;8.3;5.6;;;;;;;11.1;100.0;101690;;;;
2022/05/04 00:08:00;;;;;;;8.3;5.6;;;;;;;11.2;100.0;101690;;;;
2022/05/04 00:09:00;;;;;;;8.3;5.6;;;;;;;11.2;100.0;101690;;;;
2022/05/04 00:10:00;;;;;;;8.3;5.6;;;;;;;11.1;100.0;101690;;;;
2022/05/04 00:11:00;;;;;;;8.3;5.6;;;;;;;11.1;100.0;101690;;;;
2022/05/04 00:12:00;;;;;;;8.3;5.6;;;;;;;11.1;100.0;101690;;;;
2022/05/04 00:13:01;;;;;;;8.3;5.6;;;;;;;11.1;100.0;101690;;;;
2022/05/04 00:14:00;;;;;;;8.3;5.6;;;;;;;11.2;100.0;101690;;;;
2022/05/04 00:15:00;;;;;;;8.3;5.6;;;;;;;11.2;100.0;101690;;;;
2022/05/04 00:16:01;;;;;;;8.3;5.6;;;;;;;11.2;100.0;101690;;;;
2022/05/04 00:17:05;;;;;;;8.3;5.6;;;;;;;11.2;100.0;101690;;;;
2022/05/04 00:18:00;;;;;;;8.3;5.6;;;;;;;11.2;100.0;101690;;;;
2022/05/04 00:19:00;;;;;;;8.3;5.6;;;;;;;11.2;100.0;101690;;;;
2022/05/04 00:20:00;;;;;;;8.3;5.6;;;;;;;11.1;100.0;101690;;;;
2022/05/04 00:21:00;;;;;;;8.3;5.6;;;;;;;11.1;100.0;101690;;;;
2022/05/04 00:22:00;;;;;;;8.3;5.6;;;;;;;11.2;100.0;101690;;;;
2022/05/04 00:23:00;;;;;;;10.5;5.5;;;;;;;11.2;100.0;101690;;;;
2022/05/04 00:24:00;;;;;;;10.5;5.5;;;;;;;11.3;100.0;101690;;;;
2022/05/04 00:25:01;;;;;;;10.5;5.5;;;;;;;11.3;100.0;101690;;;;
2022/05/04 00:26:00;;;;;;;10.5;5.5;;;;;;;11.2;100.0;101690;;;;
2022/05/04 00:27:00;;;;;;;10.5;5.5;;;;;;;11.2;100.0;101690;;;;
2022/05/04 00:28:02;;;;;;;10.5;5.5;;;;;;;11.3;100.0;101690;;;;
2022/05/04 00:29:00;;;;;;;10.5;5.5;;;;;;;11.3;100.0;101690;;;;
2022/05/04 00:30:00;;;;;;;10.5;5.5;;;;;;;11.2;100.0;101690;;;;
2022/05/04 00:31:00;;;;;;;10.5;5.5;;;;;;;11.2;100.0;101690;;;;
2022/05/04 00:32:00;;;;;;;10.5;5.5;;;;;;;11.2;100.0;101690;;;;
2022/05/04 00:33:00;;;;;;;10.5;5.5;;;;;;;11.2;100.0;101690;;;;
2022/05/04 00:34:00;;;;;;;10.5;5.5;;;;;;;11.1;100.0;101690;;;;
2022/05/04 00:35:00;;;;;;;10.5;5.5;;;;;;;11.1;100.0;101690;;;;
2022/05/04 00:36:00;;;;;;;10.5;5.5;;;;;;;11.3;100.0;101690;;;;
2022/05/04 00:37:01;;;;;;;10.5;5.5;;;;;;;11.3;100.0;101690;;;;
2022/05/04 00:38:00;;;;;;;10.5;5.5;;;;;;;11.4;100.0;101690;;;;
2022/05/04 00:39:00;;;;;;;10.5;5.5;;;;;;;11.4;100.0;101690;;;;
2022/05/04 00:40:00;;;;;;;10.5;5.5;;;;;;;11.3;100.0;101690;;;;
2022/05/04 00:41:00;;;;;;;10.5;5.5;;;;;;;11.3;100.0;101690;;;;
2022/05/04 00:42:07;;;;;;;10.5;5.5;;;;;;;11.2;100.0;101690;;;;
2022/05/04 00:43:00;;;;;;;9.7;5.5;;;;;;;11.2;100.0;101690;;;;
2022/05/04 00:44:00;;;;;;;9.7;5.5;;;;;;;11.4;100.0;101690;;;;
2022/05/04 00:45:00;;;;;;;9.7;5.5;;;;;;;11.4;100.0;101690;;;;
2022/05/04 00:46:00;;;;;;;9.7;5.5;;;;;;;11.4;100.0;101690;;;;
2022/05/04 00:47:00;;;;;;;9.7;5.5;;;;;;;11.4;100.0;101690;;;;
2022/05/04 00:48:00;;;;;;;9.7;5.5;;;;;;;11.3;100.0;101690;;;;
2022/05/04 00:49:00;;;;;;;9.7;5.5;;;;;;;11.3;100.0;101690;;;;
2022/05/04 00:50:07;;;;;;;9.7;5.5;;;;;;;11.3;100.0;101690;;;;
2022/05/04 00:51:00;;;;;;;9.7;5.5;;;;;;;11.3;100.0;101690;;;;
2022/05/04 00:52:00;;;;;;;9.7;5.5;;;;;;;11.3;100.0;101690;;;;
2022/05/04 00:53:00;;;;;;;9.7;5.5;;;;;;;11.3;100.0;101690;;;;
2022/05/04 00:54:00;;;;;;;9.7;5.5;;;;;;;11.3;100.0;101690;;;;
2022/05/04 00:55:00;;;;;;;9.7;5.5;;;;;;;11.3;100.0;101690;;;;
2022/05/04 00:56:00;;;;;;;9.7;5.5;;;;;;;11.3;100.0;101690;;;;
2022/05/04 00:57:01;;;;;;;9.7;5.5;;;;;;;11.3;100.0;101690;;;;
2022/05/04 00:59:01;;;;;;;9.7;5.5;;;;;;;11.1;100.0;101690;;;;
2022/05/04 01:00:00;;;;;;;9.7;5.5;;;;;;;11.2;100.0;101680;;;;
2022/05/04 01:01:01;;;;;;;9.7;5.5;;;;;;;11.2;100.0;101680;;;;
2022/05/04 01:02:00;;;;;;;9.7;5.5;;;;;;;11.2;100.0;101680;;;;
2022/05/04 01:03:00;;;;;;;8.7;4.8;;;;;;;11.2;100.0;101680;;;;
2022/05/04 01:04:00;;;;;;;8.7;4.8;;;;;;;11.2;100.0;101680;;;;
2022/05/04 01:05:00;;;;;;;8.7;4.8;;;;;;;11.2;100.0;101680;;;;
2022/05/04 01:06:00;;;;;;;8.7;4.8;;;;;;;11.2;100.0;101680;;;;
2022/05/04 01:07:00;;;;;;;8.7;4.8;;;;;;;11.2;100.0;101680;;;;
2022/05/04 01:08:00;;;;;;;8.7;4.8;;;;;;;11.3;100.0;101680;;;;
2022/05/04 01:09:00;;;;;;;8.7;4.8;;;;;;;11.3;100.0;101680;;;;
2022/05/04 01:10:00;;;;;;;8.7;4.8;;;;;;;11.2;100.0;101680;;;;
2022/05/04 01:11:00;;;;;;;8.7;4.8;;;;;;;11.2;100.0;101680;;;;
2022/05/04 01:12:00;;;;;;;8.7;4.8;;;;;;;11.2;100.0;101680;;;;
2022/05/04 01:13:00;;;;;;;8.7;4.8;;;;;;;11.2;100.0;101680;;;;
2022/05/04 01:14:01;;;;;;;8.7;4.8;;;;;;;11.2;100.0;101680;;;;
2022/05/04 01:15:00;;;;;;;8.7;4.8;;;;;;;11.2;100.0;101680;;;;
2022/05/04 01:16:00;;;;;;;8.7;4.8;;;;;;;11.2;100.0;101680;;;;
2022/05/04 01:17:00;;;;;;;8.7;4.8;;;;;;;11.2;100.0;101680;;;;
2022/05/04 01:18:00;;;;;;;8.7;4.8;;;;;;;11.1;100.0;101680;;;;
2022/05/04 01:19:00;;;;;;;8.7;4.8;;;;;;;11.1;100.0;101680;;;;
2022/05/04 01:20:00;;;;;;;8.7;4.8;;;;;;;11.0;100.0;101680;;;;
2022/05/04 01:21:01;;;;;;;8.7;4.8;;;;;;;11.0;100.0;101680;;;;
2022/05/04 01:22:00;;;;;;;8.7;4.8;;;;;;;11.0;100.0;101680;;;;
2022/05/04 01:23:00;;;;;;;9.7;5.0;;;;;;;11.0;100.0;101680;;;;
2022/05/04 01:24:00;;;;;;;9.7;5.0;;;;;;;11.1;100.0;101680;;;;
2022/05/04 01:25:00;;;;;;;9.7;5.0;;;;;;;11.1;100.0;101680;;;;
2022/05/04 01:26:00;;;;;;;9.7;5.0;;;;;;;11.1;100.0;101680;;;;
2022/05/04 01:27:00;;;;;;;9.7;5.0;;;;;;;11.1;100.0;101680;;;;
2022/05/04 01:28:01;;;;;;;9.7;5.0;;;;;;;10.9;100.0;101680;;;;
2022/05/04 01:29:00;;;;;;;9.7;5.0;;;;;;;10.9;100.0;101680;;;;
2022/05/04 01:30:00;;;;;;;9.7;5.0;;;;;;;10.9;100.0;101680;;;;
2022/05/04 01:31:00;;;;;;;9.7;5.0;;;;;;;10.9;100.0;101680;;;;
2022/05/04 01:32:00;;;;;;;9.7;5.0;;;;;;;11.0;100.0;101680;;;;
2022/05/04 01:33:00;;;;;;;9.7;5.0;;;;;;;11.0;100.0;101680;;;;
2022/05/04 01:34:00;;;;;;;9.7;5.0;;;;;;;11.0;100.0;101680;;;;
2022/05/04 01:35:00;;;;;;;9.7;5.0;;;;;;;11.0;100.0;101680;;;;
2022/05/04 01:36:00;;;;;;;9.7;5.0;;;;;;;11.1;100.0;101680;;;;
2022/05/04 01:37:01;;;;;;;9.7;5.0;;;;;;;11.1;100.0;101680;;;;
2022/05/04 01:38:00;;;;;;;9.7;5.0;;;;;;;11.0;100.0;101680;;;;
2022/05/04 01:39:00;;;;;;;9.7;5.0;;;;;;;11.0;100.0;101680;;;;
2022/05/04 01:40:00;;;;;;;9.7;5.0;;;;;;;11.1;100.0;101680;;;;
2022/05/04 01:41:00;;;;;;;9.7;5.0;;;;;;;11.1;100.0;101680;;;;
2022/05/04 01:42:03;;;;;;;9.7;5.0;;;;;;;11.1;100.0;101680;;;;
2022/05/04 01:43:00;;;;;;;11.1;5.0;;;;;;;11.1;100.0;101680;;;;
2022/05/04 01:44:00;;;;;;;11.1;5.0;;;;;;;11.0;100.0;101680;;;;
2022/05/04 01:45:00;;;;;;;11.1;5.0;;;;;;;11.0;100.0;101680;;;;
2022/05/04 01:46:00;;;;;;;11.1;5.0;;;;;;;11.0;100.0;101680;;;;
2022/05/04 01:47:00;;;;;;;11.1;5.0;;;;;;;11.0;100.0;101680;;;;
2022/05/04 01:48:00;;;;;;;11.1;5.0;;;;;;;11.1;100.0;101680;;;;
2022/05/04 01:49:00;;;;;;;11.1;5.0;;;;;;;11.1;100.0;101680;;;;
2022/05/04 01:50:00;;;;;;;11.1;5.0;;;;;;;11.0;100.0;101680;;;;
2022/05/04 01:51:00;;;;;;;11.1;5.0;;;;;;;11.0;100.0;101680;;;;
2022/05/04 01:52:00;;;;;;;11.1;5.0;;;;;;;10.9;100.0;101670;;;;
2022/05/04 01:53:00;;;;;;;11.1;5.0;;;;;;;10.9;100.0;101670;;;;
2022/05/04 01:54:00;;;;;;;11.1;5.0;;;;;;;10.9;100.0;101670;;;;
2022/05/04 01:55:01;;;;;;;11.1;5.0;;;;;;;10.9;100.0;101670;;;;
2022/05/04 01:56:01;;;;;;;11.1;5.0;;;;;;;10.9;100.0;101680;;;;
2022/05/04 01:57:00;;;;;;;11.1;5.0;;;;;;;10.9;100.0;101680;;;;
2022/05/04 01:58:00;;;;;;;11.1;5.0;;;;;;;11.0;100.0;101680;;;;
2022/05/04 01:59:00;;;;;;;11.1;5.0;;;;;;;11.0;100.0;101680;;;;
2022/05/04 02:00:00;;;;;;;11.1;5.0;;;;;;;10.9;100.0;101670;;;;
2022/05/04 02:01:01;;;;;;;11.1;5.0;;;;;;;10.9;100.0;101670;;;;
2022/05/04 02:02:00;;;;;;;11.1;5.0;;;;;;;11.0;100.0;101670;;;;
2022/05/04 02:03:00;;;;;;;9.0;5.0;;;;;;;11.0;100.0;101670;;;;
2022/05/04 02:04:00;;;;;;;9.0;5.0;;;;;;;11.0;100.0;101680;;;;
2022/05/04 02:05:00;;;;;;;9.0;5.0;;;;;;;11.0;100.0;101680;;;;
2022/05/04 02:06:00;;;;;;;9.0;5.0;;;;;;;10.9;100.0;101670;;;;
2022/05/04 02:07:00;;;;;;;9.0;5.0;;;;;;;10.9;100.0;101670;;;;
2022/05/04 02:08:00;;;;;;;9.0;5.0;;;;;;;10.8;100.0;101670;;;;
2022/05/04 02:09:00;;;;;;;9.0;5.0;;;;;;;10.8;100.0;101670;;;;
2022/05/04 02:10:00;;;;;;;9.0;5.0;;;;;;;10.8;100.0;101670;;;;
2022/05/04 02:11:00;;;;;;;9.0;5.0;;;;;;;10.8;100.0;101670;;;;
2022/05/04 02:12:00;;;;;;;9.0;5.0;;;;;;;10.9;100.0;101670;;;;
2022/05/04 02:13:05;;;;;;;9.0;5.0;;;;;;;10.9;100.0;101670;;;;
2022/05/04 02:14:00;;;;;;;9.0;5.0;;;;;;;10.8;100.0;101670;;;;
2022/05/04 02:15:00;;;;;;;9.0;5.0;;;;;;;10.8;100.0;101670;;;;
2022/05/04 02:16:00;;;;;;;9.0;5.0;;;;;;;10.7;100.0;101680;;;;
2022/05/04 02:17:00;;;;;;;9.0;5.0;;;;;;;10.7;100.0;101680;;;;
2022/05/04 02:18:00;;;;;;;9.0;5.0;;;;;;;10.7;100.0;101670;;;;
2022/05/04 02:19:00;;;;;;;9.0;5.0;;;;;;;10.7;100.0;101670;;;;
2022/05/04 02:20:00;;;;;;;9.0;5.0;;;;;;;10.6;100.0;101680;;;;
2022/05/04 02:21:00;;;;;;;9.0;5.0;;;;;;;10.6;100.0;101680;;;;
2022/05/04 02:22:00;;;;;;;9.0;5.0;;;;;;;10.7;100.0;101670;;;;
2022/05/04 02:23:00;;;;;;;7.7;4.8;;;;;;;10.7;100.0;101670;;;;
2022/05/04 02:24:00;;;;;;;7.7;4.8;;;;;;;10.9;100.0;101670;;;;
2022/05/04 02:25:00;;;;;;;7.7;4.8;;;;;;;10.9;100.0;101670;;;;
2022/05/04 02:26:00;;;;;;;7.7;4.8;;;;;;;10.8;100.0;101670;;;;
2022/05/04 02:27:00;;;;;;;7.7;4.8;;;;;;;10.8;100.0;101670;;;;
2022/05/04 02:28:00;;;;;;;7.7;4.8;;;;;;;10.8;100.0;101670;;;;
2022/05/04 02:29:00;;;;;;;7.7;4.8;;;;;;;10.8;100.0;101670;;;;
2022/05/04 02:30:00;;;;;;;7.7;4.8;;;;;;;10.6;100.0;101670;;;;
2022/05/04 02:31:00;;;;;;;7.7;4.8;;;;;;;10.6;100.0;101670;;;;
2022/05/04 02:32:00;;;;;;;7.7;4.8;;;;;;;10.5;100.0;101670;;;;
2022/05/04 02:33:00;;;;;;;7.7;4.8;;;;;;;10.5;100.0;101670;;;;
2022/05/04 02:34:00;;;;;;;7.7;4.8;;;;;;;10.6;100.0;101660;;;;
2022/05/04 02:38:00;;;;;;;7.7;4.8;;;;;;;10.5;100.0;101660;;;;
2022/05/04 02:39:00;;;;;;;7.7;4.8;;;;;;;10.5;100.0;101660;;;;
2022/05/04 02:40:00;;;;;;;7.7;4.8;;;;;;;10.4;100.0;101650;;;;
2022/05/04 02:41:00;;;;;;;7.7;4.8;;;;;;;10.4;100.0;101650;;;;
2022/05/04 02:42:00;;;;;;;7.7;4.8;;;;;;;10.5;100.0;101660;;;;
2022/05/04 02:43:01;;;;;;;10.9;5.5;;;;;;;10.5;100.0;101660;;;;
2022/05/04 02:44:01;;;;;;;10.9;5.5;;;;;;;10.6;100.0;101660;;;;
2022/05/04 02:45:00;;;;;;;10.9;5.5;;;;;;;10.6;100.0;101660;;;;
2022/05/04 02:46:10;;;;;;;10.9;5.5;;;;;;;10.6;100.0;101660;;;;
2022/05/04 02:47:00;;;;;;;10.9;5.5;;;;;;;10.6;100.0;101660;;;;
2022/05/04 02:48:00;;;;;;;10.9;5.5;;;;;;;10.5;100.0;101660;;;;
2022/05/04 02:49:00;;;;;;;10.9;5.5;;;;;;;10.5;100.0;101660;;;;
2022/05/04 02:50:00;;;;;;;10.9;5.5;;;;;;;10.5;100.0;101660;;;;
2022/05/04 02:51:00;;;;;;;10.9;5.5;;;;;;;10.5;100.0;101660;;;;
2022/05/04 02:52:00;;;;;;;10.9;5.5;;;;;;;10.6;100.0;101660;;;;
2022/05/04 02:53:00;;;;;;;10.9;5.5;;;;;;;10.6;100.0;101660;;;;
2022/05/04 02:54:00;;;;;;;10.9;5.5;;;;;;;10.6;100.0;101660;;;;
2022/05/04 02:55:00;;;;;;;10.9;5.5;;;;;;;10.6;100.0;101660;;;;
2022/05/04 02:56:00;;;;;;;10.9;5.5;;;;;;;10.5;100.0;101650;;;;
2022/05/04 02:57:00;;;;;;;10.9;5.5;;;;;;;10.5;100.0;101650;;;;
2022/05/04 02:58:00;;;;;;;10.9;5.5;;;;;;;10.4;100.0;101650;;;;
2022/05/04 02:59:00;;;;;;;10.9;5.5;;;;;;;10.4;100.0;101650;;;;
2022/05/04 03:00:00;;;;;;;10.9;5.5;;;;;;;10.6;100.0;101650;;;;
2022/05/04 03:03:00;;;;;;;8.8;5.7;;;;;;;10.5;100.0;101650;;;;
2022/05/04 03:04:02;;;;;;;8.8;5.7;;;;;;;10.4;100.0;101660;;;;
2022/05/04 03:05:02;;;;;;;8.8;5.7;;;;;;;10.4;100.0;101660;;;;
2022/05/04 03:06:00;;;;;;;8.8;5.7;;;;;;;10.5;100.0;101660;;;;
2022/05/04 03:07:00;;;;;;;8.8;5.7;;;;;;;10.5;100.0;101660;;;;
2022/05/04 03:08:00;;;;;;;8.8;5.7;;;;;;;10.6;100.0;101660;;;;
2022/05/04 03:09:00;;;;;;;8.8;5.7;;;;;;;10.6;100.0;101660;;;;
2022/05/04 03:10:01;;;;;;;8.8;5.7;;;;;;;10.5;100.0;101660;;;;
2022/05/04 03:12:01;;;;;;;8.8;5.7;;;;;;;10.4;100.0;101650;;;;
2022/05/04 03:13:00;;;;;;;8.8;5.7;;;;;;;10.4;100.0;101650;;;;
2022/05/04 03:14:00;;;;;;;8.8;5.7;;;;;;;10.4;100.0;101650;;;;
2022/05/04 03:15:00;;;;;;;8.8;5.7;;;;;;;10.4;100.0;101650;;;;
2022/05/04 03:16:00;;;;;;;8.8;5.7;;;;;;;10.4;100.0;101650;;;;
2022/05/04 03:17:00;;;;;;;8.8;5.7;;;;;;;10.4;100.0;101650;;;;
2022/05/04 03:18:00;;;;;;;8.8;5.7;;;;;;;10.5;100.0;101650;;;;
2022/05/04 03:19:00;;;;;;;8.8;5.7;;;;;;;10.5;100.0;101650;;;;
2022/05/04 03:20:00;;;;;;;8.8;5.7;;;;;;;10.4;100.0;101640;;;;
2022/05/04 03:21:00;;;;;;;8.8;5.7;;;;;;;10.4;100.0;101640;;;;
2022/05/04 03:22:00;;;;;;;8.8;5.7;;;;;;;10.4;100.0;101640;;;;
2022/05/04 03:23:00;;;;;;;8.6;5.6;;;;;;;10.4;100.0;101640;;;;
2022/05/04 03:24:01;;;;;;;8.6;5.6;;;;;;;10.4;100.0;101640;;;;
2022/05/04 03:25:00;;;;;;;8.6;5.6;;;;;;;10.4;100.0;101640;;;;
2022/05/04 03:26:00;;;;;;;8.6;5.6;;;;;;;10.2;100.0;101640;;;;
2022/05/04 03:27:00;;;;;;;8.6;5.6;;;;;;;10.2;100.0;101640;;;;
2022/05/04 03:28:00;;;;;;;8.6;5.6;;;;;;;10.3;100.0;101640;;;;
2022/05/04 03:29:00;;;;;;;8.6;5.6;;;;;;;10.3;100.0;101640;;;;
2022/05/04 03:30:01;;;;;;;8.6;5.6;;;;;;;10.3;100.0;101640;;;;
2022/05/04 03:31:00;;;;;;;8.6;5.6;;;;;;;10.3;100.0;101640;;;;
2022/05/04 03:32:00;;;;;;;8.6;5.6;;;;;;;10.3;100.0;101640;;;;
2022/05/04 03:33:00;;;;;;;8.6;5.6;;;;;;;10.3;100.0;101640;;;;
2022/05/04 03:34:01;;;;;;;8.6;5.6;;;;;;;10.4;100.0;101640;;;;
2022/05/04 03:35:00;;;;;;;8.6;5.6;;;;;;;10.4;100.0;101640;;;;
2022/05/04 03:36:00;;;;;;;8.6;5.6;;;;;;;10.2;100.0;101640;;;;
2022/05/04 03:37:00;;;;;;;8.6;5.6;;;;;;;10.2;100.0;101640;;;;
2022/05/04 03:38:00;;;;;;;8.6;5.6;;;;;;;10.2;100.0;101640;;;;
2022/05/04 03:39:01;;;;;;;8.6;5.6;;;;;;;10.2;100.0;101640;;;;
2022/05/04 03:40:00;;;;;;;8.6;5.6;;;;;;;10.2;100.0;101630;;;;
2022/05/04 03:41:00;;;;;;;8.6;5.6;;;;;;;10.2;100.0;101630;;;;
2022/05/04 03:42:00;;;;;;;8.6;5.6;;;;;;;10.2;100.0;101640;;;;
2022/05/04 03:43:00;;;;;;;8.8;5.5;;;;;;;10.2;100.0;101640;;;;
2022/05/04 03:44:00;;;;;;;8.8;5.5;;;;;;;10.2;100.0;101640;;;;
2022/05/04 03:45:00;;;;;;;8.8;5.5;;;;;;;10.2;100.0;101640;;;;
2022/05/04 03:46:10;;;;;;;8.8;5.5;;;;;;;10.2;100.0;101640;;;;
2022/05/04 03:47:00;;;;;;;8.8;5.5;;;;;;;10.2;100.0;101640;;;;
2022/05/04 03:48:00;;;;;;;8.8;5.5;;;;;;;10.2;100.0;101640;;;;
2022/05/04 03:49:00;;;;;;;8.8;5.5;;;;;;;10.2;100.0;101640;;;;
2022/05/04 03:50:00;;;;;;;8.8;5.5;;;;;;;10.2;100.0;101640;;;;
2022/05/04 03:51:00;;;;;;;8.8;5.5;;;;;;;10.2;100.0;101640;;;;
2022/05/04 03:52:00;;;;;;;8.8;5.5;;;;;;;10.2;100.0;101640;;;;
2022/05/04 03:53:00;;;;;;;8.8;5.5;;;;;;;10.2;100.0;101640;;;;
2022/05/04 03:54:00;;;;;;;8.8;5.5;;;;;;;10.1;100.0;101640;;;;
2022/05/04 03:55:00;;;;;;;8.8;5.5;;;;;;;10.1;100.0;101640;;;;
2022/05/04 03:56:00;;;;;;;8.8;5.5;;;;;;;10.2;100.0;101640;;;;
2022/05/04 03:57:00;;;;;;;8.8;5.5;;;;;;;10.2;100.0;101640;;;;
2022/05/04 03:58:00;;;;;;;8.8;5.5;;;;;;;10.1;100.0;101640;;;;
2022/05/04 03:59:00;;;;;;;8.8;5.5;;;;;;;10.1;100.0;101640;;;;
2022/05/04 04:00:00;;;;;;;8.8;5.5;;;;;;;10.1;100.0;101640;;;;
2022/05/04 04:01:01;;;;;;;8.8;5.5;;;;;;;10.1;100.0;101640;;;;
2022/05/04 04:02:00;;;;;;;8.8;5.5;;;;;;;10.0;100.0;101640;;;;
2022/05/04 04:03:00;;;;;;;11.9;5.8;;;;;;;10.0;100.0;101640;;;;
2022/05/04 04:04:00;;;;;;;11.9;5.8;;;;;;;9.9;100.0;101640;;;;
2022/05/04 04:05:00;;;;;;;11.9;5.8;;;;;;;9.9;100.0;101640;;;;
2022/05/04 04:06:00;;;;;;;11.9;5.8;;;;;;;9.9;100.0;101650;;;;
2022/05/04 04:07:00;;;;;;;11.9;5.8;;;;;;;9.9;100.0;101650;;;;
2022/05/04 04:08:00;;;;;;;11.9;5.8;;;;;;;10.1;100.0;101650;;;;
2022/05/04 04:09:00;;;;;;;11.9;5.8;;;;;;;10.1;100.0;101650;;;;
2022/05/04 04:10:00;;;;;;;11.9;5.8;;;;;;;10.0;100.0;101650;;;;
2022/05/04 04:11:00;;;;;;;11.9;5.8;;;;;;;10.0;100.0;101650;;;;
2022/05/04 04:12:00;;;;;;;11.9;5.8;;;;;;;10.0;100.0;101650;;;;
2022/05/04 04:13:00;;;;;;;11.9;5.8;;;;;;;10.0;100.0;101650;;;;
2022/05/04 04:14:00;;;;;;;11.9;5.8;;;;;;;10.1;100.0;101650;;;;
2022/05/04 04:15:00;;;;;;;11.9;5.8;;;;;;;10.1;100.0;101650;;;;
2022/05/04 04:16:00;;;;;;;11.9;5.8;;;;;;;10.1;100.0;101640;;;;
2022/05/04 04:17:00;;;;;;;11.9;5.8;;;;;;;10.1;100.0;101640;;;;
2022/05/04 04:18:00;;;;;;;11.9;5.8;;;;;;;10.1;100.0;101650;;;;
2022/05/04 04:19:00;;;;;;;11.9;5.8;;;;;;;10.1;100.0;101650;;;;
2022/05/04 04:22:00;;;;;;;11.9;5.8;;;;;;;10.0;100.0;101650;;;;
2022/05/04 04:23:01;;;;;;;8.3;5.7;;;;;;;10.0;100.0;101650;;;;
2022/05/04 04:24:00;;;;;;;8.3;5.7;;;;;;;10.0;100.0;101640;;;;
2022/05/04 04:25:00;;;;;;;8.3;5.7;;;;;;;10.0;100.0;101640;;;;
2022/05/04 04:26:01;;;;;;;8.3;5.7;;;;;;;9.9;100.0;101640;;;;
2022/05/04 04:27:00;;;;;;;8.3;5.7;;;;;;;9.9;100.0;101640;;;;
2022/05/04 04:28:00;;;;;;;8.3;5.7;;;;;;;9.9;100.0;101640;;;;
2022/05/04 04:29:00;;;;;;;8.3;5.7;;;;;;;9.9;100.0;101640;;;;
2022/05/04 04:30:00;;;;;;;8.3;5.7;;;;;;;9.9;100.0;101640;;;;
2022/05/04 04:31:00;;;;;;;8.3;5.7;;;;;;;9.9;100.0;101640;;;;
2022/05/04 04:32:00;;;;;;;8.3;5.7;;;;;;;10.0;100.0;101640;;;;
2022/05/04 04:33:00;;;;;;;8.3;5.7;;;;;;;10.0;100.0;101640;;;;
2022/05/04 04:34:01;;;;;;;8.3;5.7;;;;;;;10.0;100.0;101640;;;;
2022/05/04 04:35:00;;;;;;;8.3;5.7;;;;;;;10.0;100.0;101640;;;;
2022/05/04 04:36:00;;;;;;;8.3;5.7;;;;;;;10.0;100.0;101640;;;;
2022/05/04 04:37:00;;;;;;;8.3;5.7;;;;;;;10.0;100.0;101640;;;;
2022/05/04 04:38:00;;;;;;;8.3;5.7;;;;;;;10.0;100.0;101650;;;;
2022/05/04 04:39:00;;;;;;;8.3;5.7;;;;;;;10.0;100.0;101650;;;;
2022/05/04 04:40:00;;;;;;;8.3;5.7;;;;;;;10.0;100.0;101650;;;;
2022/05/04 04:41:00;;;;;;;8.3;5.7;;;;;;;10.0;100.0;101650;;;;
2022/05/04 04:42:00;;;;;;;12.4;6.8;;;;;;;9.8;100.0;101650;;;;
2022/05/04 04:43:00;;;;;;;12.4;6.8;;;;;;;9.8;100.0;101650;;;;
2022/05/04 04:44:00;;;;;;;12.4;6.8;;;;;;;9.9;100.0;101650;;;;
2022/05/04 04:45:00;;;;;;;12.4;6.8;;;;;;;9.9;100.0;101650;;;;
2022/05/04 04:46:00;;;;;;;12.4;6.8;;;;;;;9.8;100.0;101660;;;;
2022/05/04 04:47:00;;;;;;;12.4;6.8;;;;;;;9.8;100.0;101660;;;;
2022/05/04 04:48:00;;;;;;;12.4;6.8;;;;;;;9.8;100.0;101660;;;;
2022/05/04 04:49:00;;;;;;;12.4;6.8;;;;;;;9.8;100.0;101660;;;;
2022/05/04 04:50:00;;;;;;;12.4;6.8;;;;;;;9.8;100.0;101660;;;;
2022/05/04 04:51:00;;;;;;;12.4;6.8;;;;;;;9.8;100.0;101660;;;;
2022/05/04 04:52:00;;;;;;;12.4;6.8;;;;;;;9.8;100.0;101660;;;;
2022/05/04 04:53:00;;;;;;;12.4;6.8;;;;;;;9.8;100.0;101660;;;;
2022/05/04 04:54:00;;;;;;;12.4;6.8;;;;;;;9.7;100.0;101660;;;;
2022/05/04 04:55:00;;;;;;;12.4;6.8;;;;;;;9.7;100.0;101660;;;;
2022/05/04 04:56:00;;;;;;;12.4;6.8;;;;;;;9.7;100.0;101660;;;;
2022/05/04 04:57:00;;;;;;;12.4;6.8;;;;;;;9.7;100.0;101660;;;;
2022/05/04 04:58:00;;;;;;;12.4;6.8;;;;;;;9.8;100.0;101660;;;;
2022/05/04 04:59:00;;;;;;;12.4;6.8;;;;;;;9.8;100.0;101660;;;;
2022/05/04 05:00:00;;;;;;;12.4;6.8;;;;;;;9.9;100.0;101660;;;;
2022/05/04 05:01:00;;;;;;;12.4;6.8;;;;;;;9.9;100.0;101660;;;;
2022/05/04 05:02:00;;;;;;;10.3;6.0;;;;;;;9.9;100.0;101660;;;;
2022/05/04 05:03:00;;;;;;;10.3;6.0;;;;;;;9.9;100.0;101660;;;;
2022/05/04 05:04:00;;;;;;;10.3;6.0;;;;;;;9.9;100.0;101660;;;;
2022/05/04 05:05:00;;;;;;;10.3;6.0;;;;;;;9.9;100.0;101660;;;;
2022/05/04 05:06:00;;;;;;;10.3;6.0;;;;;;;9.8;100.0;101650;;;;
2022/05/04 05:07:00;;;;;;;10.3;6.0;;;;;;;9.8;100.0;101650;;;;
2022/05/04 05:08:00;;;;;;;10.3;6.0;;;;;;;9.7;100.0;101650;;;;
2022/05/04 05:09:00;;;;;;;10.3;6.0;;;;;;;9.7;100.0;101650;;;;
2022/05/04 05:10:00;;;;;;;10.3;6.0;;;;;;;9.6;100.0;101650;;;;
2022/05/04 05:11:00;;;;;;;10.3;6.0;;;;;;;9.6;100.0;101650;;;;
2022/05/04 05:12:00;;;;;;;10.3;6.0;;;;;;;9.5;100.0;101660;;;;
2022/05/04 05:13:00;;;;;;;10.3;6.0;;;;;;;9.5;100.0;101660;;;;
2022/05/04 05:16:07;;;;;;;10.3;6.0;;;;;;;9.6;100.0;101660;;;;
2022/05/04 05:17:00;;;;;;;10.3;6.0;;;;;;;9.6;100.0;101660;;;;
2022/05/04 05:18:00;;;;;;;10.3;6.0;;;;;;;9.6;100.0;101660;;;;
2022/05/04 05:19:00;;;;;;;10.3;6.0;;;;;;;9.6;100.0;101660;;;;
2022/05/04 05:20:00;;;;;;;10.3;6.0;;;;;;;9.6;100.0;101660;;;;
2022/05/04 05:21:00;;;;;;;10.3;6.0;;;;;;;9.6;100.0;101660;;;;
2022/05/04 05:22:00;;;;;;;9.2;6.3;;;;;;;9.6;100.0;101660;;;;
2022/05/04 05:23:01;;;;;;;9.2;6.3;;;;;;;9.6;100.0;101660;;;;
2022/05/04 05:24:00;;;;;;;9.2;6.3;;;;;;;9.5;100.0;101660;;;;
2022/05/04 05:25:00;;;;;;;9.2;6.3;;;;;;;9.5;100.0;101660;;;;
2022/05/04 05:26:00;;;;;;;9.2;6.3;;;;;;;9.4;100.0;101660;;;;
2022/05/04 05:27:00;;;;;;;9.2;6.3;;;;;;;9.4;100.0;101660;;;;
2022/05/04 05:28:00;;;;;;;9.2;6.3;;;;;;;9.4;100.0;101660;;;;
2022/05/04 05:29:00;;;;;;;9.2;6.3;;;;;;;9.4;100.0;101660;;;;
2022/05/04 05:30:00;;;;;;;9.2;6.3;;;;;;;9.3;100.0;101660;;;;
2022/05/04 05:31:01;;;;;;;9.2;6.3;;;;;;;9.3;100.0;101660;;;;
2022/05/04 05:32:00;;;;;;;9.2;6.3;;;;;;;9.2;100.0;101670;;;;
2022/05/04 05:33:00;;;;;;;9.2;6.3;;;;;;;9.2;100.0;101670;;;;
2022/05/04 05:34:00;;;;;;;9.2;6.3;;;;;;;9.5;100.0;101660;;;;
2022/05/04 05:35:00;;;;;;;9.2;6.3;;;;;;;9.5;100.0;101660;;;;
2022/05/04 05:36:00;;;;;;;9.2;6.3;;;;;;;9.4;100.0;101660;;;;
2022/05/04 05:37:00;;;;;;;9.2;6.3;;;;;;;9.4;100.0;101660;;;;
2022/05/04 05:38:00;;;;;;;9.2;6.3;;;;;;;9.5;100.0;101660;;;;
2022/05/04 05:39:00;;;;;;;9.2;6.3;;;;;;;9.5;100.0;101660;;;;
2022/05/04 05:40:00;;;;;;;9.2;6.3;;;;;;;9.5;100.0;101660;;;;
2022/05/04 05:41:01;;;;;;;9.2;6.3;;;;;;;9.5;100.0;101660;;;;
2022/05/04 05:42:00;;;;;;;11.7;6.7;;;;;;;9.5;100.0;101660;;;;
2022/05/04 05:43:00;;;;;;;11.7;6.7;;;;;;;9.5;100.0;101660;;;;
2022/05/04 05:44:00;;;;;;;11.7;6.7;;;;;;;9.5;100.0;101660;;;;
2022/05/04 05:45:00;;;;;;;11.7;6.7;;;;;;;9.5;100.0;101660;;;;
2022/05/04 05:46:00;;;;;;;11.7;6.7;;;;;;;9.4;100.0;101660;;;;
2022/05/04 05:47:00;;;;;;;11.7;6.7;;;;;;;9.4;100.0;101660;;;;
2022/05/04 05:48:00;;;;;;;11.7;6.7;;;;;;;9.4;100.0;101660;;;;
2022/05/04 05:49:00;;;;;;;11.7;6.7;;;;;;;9.4;100.0;101660;;;;
2022/05/04 05:50:05;;;;;;;11.7;6.7;;;;;;;9.5;100.0;101660;;;;
2022/05/04 05:51:04;;;;;;;11.7;6.7;;;;;;;9.5;100.0;101660;;;;
2022/05/04 05:52:00;;;;;;;11.7;6.7;;;;;;;9.6;100.0;101660;;;;
2022/05/04 05:53:01;;;;;;;11.7;6.7;;;;;;;9.6;100.0;101660;;;;
2022/05/04 05:54:00;;;;;;;11.7;6.7;;;;;;;9.5;100.0;101660;;;;
2022/05/04 05:55:00;;;;;;;11.7;6.7;;;;;;;9.5;100.0;101660;;;;
2022/05/04 05:56:00;;;;;;;11.7;6.7;;;;;;;9.6;100.0;101670;;;;
2022/05/04 05:57:00;;;;;;;11.7;6.7;;;;;;;9.6;100.0;101670;;;;
2022/05/04 05:58:00;;;;;;;11.7;6.7;;;;;;;9.5;100.0;101660;;;;
2022/05/04 05:59:00;;;;;;;11.7;6.7;;;;;;;9.5;100.0;101660;;;;
2022/05/04 06:00:00;;;;;;;11.7;6.7;;;;;;;9.4;100.0;101660;;;;
2022/05/04 06:01:00;;;;;;;11.7;6.7;;;;;;;9.4;100.0;101660;;;;
2022/05/04 06:02:00;;;;;;;10.7;6.3;;;;;;;9.5;100.0;101670;;;;
2022/05/04 06:03:00;;;;;;;10.7;6.3;;;;;;;9.5;100.0;101670;;;;
2022/05/04 06:04:00;;;;;;;10.7;6.3;;;;;;;9.4;100.0;101670;;;;
2022/05/04 06:05:00;;;;;;;10.7;6.3;;;;;;;9.4;100.0;101670;;;;
2022/05/04 06:06:00;;;;;;;10.7;6.3;;;;;;;9.5;100.0;101670;;;;
2022/05/04 06:07:00;;;;;;;10.7;6.3;;;;;;;9.5;100.0;101670;;;;
2022/05/04 06:08:03;;;;;;;10.7;6.3;;;;;;;9.6;100.0;101670;;;;
2022/05/04 06:09:00;;;;;;;10.7;6.3;;;;;;;9.6;100.0;101670;;;;
2022/05/04 06:10:00;;;;;;;10.7;6.3;;;;;;;9.7;100.0;101670;;;;
2022/05/04 06:11:00;;;;;;;10.7;6.3;;;;;;;9.7;100.0;101670;;;;
2022/05/04 06:12:00;;;;;;;10.7;6.3;;;;;;;9.7;100.0;101670;;;;
2022/05/04 06:13:00;;;;;;;10.7;6.3;;;;;;;9.7;100.0;101670;;;;
2022/05/04 06:14:00;;;;;;;10.7;6.3;;;;;;;9.6;100.0;101670;;;;
2022/05/04 06:15:00;;;;;;;10.7;6.3;;;;;;;9.6;100.0;101670;;;;
2022/05/04 06:16:00;;;;;;;10.7;6.3;;;;;;;9.8;100.0;101670;;;;
2022/05/04 06:17:00;;;;;;;10.7;6.3;;;;;;;9.8;100.0;101670;;;;
2022/05/04 06:18:01;;;;;;;10.7;6.3;;;;;;;9.9;100.0;101670;;;;
2022/05/04 06:19:00;;;;;;;10.7;6.3;;;;;;;9.9;100.0;101670;;;;
2022/05/04 06:20:00;;;;;;;10.7;6.3;;;;;;;9.9;100.0;101670;;;;
2022/05/04 06:21:00;;;;;;;10.7;6.3;;;;;;;9.9;100.0;101670;;;;
2022/05/04 06:22:00;;;;;;;12.0;5.7;;;;;;;9.9;100.0;101680;;;;
2022/05/04 06:23:00;;;;;;;12.0;5.7;;;;;;;9.9;100.0;101680;;;;
2022/05/04 06:24:00;;;;;;;12.0;5.7;;;;;;;9.9;100.0;101680;;;;
2022/05/04 06:25:00;;;;;;;12.0;5.7;;;;;;;9.9;100.0;101680;;;;
2022/05/04 06:26:00;;;;;;;12.0;5.7;;;;;;;9.9;100.0;101680;;;;
2022/05/04 06:27:00;;;;;;;12.0;5.7;;;;;;;9.9;100.0;101680;;;;
2022/05/04 06:28:00;;;;;;;12.0;5.7;;;;;;;10.0;100.0;101680;;;;
2022/05/04 06:29:00;;;;;;;12.0;5.7;;;;;;;10.0;100.0;101680;;;;
2022/05/04 06:34:07;;;;;;;12.0;5.7;;;;;;;10.0;100.0;101680;;;;
2022/05/04 06:35:00;;;;;;;12.0;5.7;;;;;;;10.0;100.0;101680;;;;
2022/05/04 06:36:00;;;;;;;12.0;5.7;;;;;;;10.1;100.0;101680;;;;